createdAt,value
2023-01-09T00:01:52.573Z,2.35
2023-01-09T00:04:22.026Z,2.31
2023-01-09T00:06:54.335Z,2.24
2023-01-09T00:09:25.365Z,2.18
2023-01-09T00:11:55.231Z,2.21
2023-01-09T00:14:24.304Z,2.41
2023-01-09T00:16:56.143Z,2.68
2023-01-09T00:19:23.473Z,2.72
2023-01-09T00:21:51.878Z,2.69
2023-01-09T00:24:20.248Z,2.72
2023-01-09T00:26:48.683Z,2.71
2023-01-09T00:29:17.167Z,2.69
2023-01-09T00:31:45.515Z,2.58
2023-01-09T00:34:14.069Z,2.54
2023-01-09T00:36:42.795Z,2.43
2023-01-09T00:39:12.411Z,2.37
2023-01-09T00:41:53.769Z,2.40
2023-01-09T00:44:41.320Z,2.51
2023-01-09T00:47:31.081Z,2.61
2023-01-09T00:50:11.591Z,2.63
2023-01-09T00:52:44.514Z,2.61
2023-01-09T00:55:16.431Z,2.63
2023-01-09T00:57:46.802Z,2.58
2023-01-09T01:00:18.128Z,2.56
2023-01-09T01:02:48.216Z,2.55
2023-01-09T01:05:36.950Z,2.57
2023-01-09T01:08:18.016Z,2.63
2023-01-09T01:10:48.675Z,2.52
2023-01-09T01:13:18.809Z,2.62
2023-01-09T01:15:47.570Z,2.62
2023-01-09T01:18:15.559Z,2.52
2023-01-09T01:20:45.348Z,2.46
2023-01-09T01:23:15.491Z,2.48
2023-01-09T01:25:45.598Z,2.49
2023-01-09T01:28:16.110Z,2.40
2023-01-09T01:30:46.212Z,2.35
2023-01-09T01:33:16.265Z,2.28
2023-01-09T01:35:46.265Z,2.23
2023-01-09T01:38:16.278Z,2.17
2023-01-09T01:40:54.864Z,2.26
2023-01-09T01:43:25.442Z,2.17
2023-01-09T01:45:53.146Z,2.06
2023-01-09T01:48:32.444Z,2.00
2023-01-09T01:51:10.054Z,2.01
2023-01-09T01:53:50.738Z,1.96
2023-01-09T01:56:36.421Z,1.86
2023-01-09T01:59:16.208Z,1.79
2023-01-09T02:01:53.630Z,1.72
2023-01-09T02:04:22.733Z,1.74
2023-01-09T02:06:56.661Z,1.70
2023-01-09T02:09:26.853Z,1.59
2023-01-09T02:11:58.847Z,1.53
2023-01-09T02:14:32.935Z,1.54
2023-01-09T02:17:45.200Z,1.50
2023-01-09T02:20:44.023Z,1.50
2023-01-09T02:24:00.629Z,1.60
2023-01-09T02:27:04.913Z,1.54
2023-01-09T02:30:18.380Z,1.59
2023-01-09T02:33:26.780Z,1.77
2023-01-09T02:36:34.066Z,1.73
2023-01-09T02:39:27.966Z,1.70
2023-01-09T02:42:23.877Z,1.72
2023-01-09T02:44:54.170Z,1.63
2023-01-09T02:47:24.194Z,1.61
2023-01-09T02:50:04.991Z,1.59
2023-01-09T02:52:52.721Z,1.64
2023-01-09T02:55:53.893Z,1.66
2023-01-09T02:59:12.598Z,1.61
2023-01-09T03:02:25.136Z,1.68
2023-01-09T03:05:30.691Z,1.64
2023-01-09T03:08:33.055Z,1.66
2023-01-09T03:11:09.067Z,1.65
2023-01-09T03:13:58.608Z,1.72
2023-01-09T03:16:38.115Z,1.78
2023-01-09T03:19:17.395Z,1.82
2023-01-09T03:21:49.905Z,1.93
2023-01-09T03:24:17.819Z,2.12
2023-01-09T03:26:46.393Z,2.08
2023-01-09T03:29:14.460Z,2.08
2023-01-09T03:31:42.856Z,2.14
2023-01-09T03:34:11.381Z,2.15
2023-01-09T03:36:39.735Z,2.18
2023-01-09T03:39:08.146Z,2.25
2023-01-09T03:41:36.553Z,2.26
2023-01-09T03:44:04.978Z,2.28
2023-01-09T03:46:33.581Z,2.31
2023-01-09T03:49:01.873Z,2.46
2023-01-09T03:51:30.195Z,2.48
2023-01-09T03:53:58.685Z,2.68
2023-01-09T03:56:27.050Z,2.59
2023-01-09T03:58:55.863Z,2.62
2023-01-09T04:01:23.953Z,2.58
2023-01-09T04:03:52.497Z,2.58
2023-01-09T04:06:20.738Z,2.58
2023-01-09T04:08:49.151Z,2.59
2023-01-09T04:11:18.261Z,2.61
2023-01-09T04:13:46.082Z,2.59
2023-01-09T04:16:14.707Z,2.63
2023-01-09T04:18:42.958Z,2.68
2023-01-09T04:21:11.376Z,2.77
2023-01-09T04:23:39.833Z,2.85
2023-01-09T04:26:08.398Z,2.78
2023-01-09T04:28:36.862Z,2.78
2023-01-09T04:31:05.421Z,2.87
2023-01-09T04:33:33.628Z,3.01
2023-01-09T04:36:01.958Z,2.99
2023-01-09T04:38:30.352Z,2.93
2023-01-09T04:40:58.842Z,2.85
2023-01-09T04:43:27.234Z,2.83
2023-01-09T04:45:55.771Z,2.97
2023-01-09T04:48:24.135Z,3.06
2023-01-09T04:50:52.515Z,3.11
2023-01-09T04:53:20.960Z,3.07
2023-01-09T04:55:49.388Z,2.99
2023-01-09T04:58:18.252Z,2.96
2023-01-09T05:00:46.258Z,2.95
2023-01-09T05:03:14.834Z,2.93
2023-01-09T05:05:43.065Z,2.92
2023-01-09T05:08:11.518Z,2.95
2023-01-09T05:10:39.938Z,3.07
2023-01-09T05:13:08.372Z,3.25
2023-01-09T05:15:36.845Z,3.47
2023-01-09T05:18:05.292Z,3.42
2023-01-09T05:20:33.644Z,3.47
2023-01-09T05:23:02.183Z,3.38
2023-01-09T05:25:30.445Z,3.33
2023-01-09T05:28:01.497Z,3.38
2023-01-09T05:30:30.359Z,3.35
2023-01-09T05:32:58.878Z,3.28
2023-01-09T05:35:27.190Z,3.29
2023-01-09T05:37:56.099Z,3.30
2023-01-09T05:40:29.001Z,3.33
2023-01-09T05:43:02.259Z,3.34
2023-01-09T05:45:32.425Z,3.35
2023-01-09T05:48:02.554Z,3.45
2023-01-09T05:50:32.627Z,3.39
2023-01-09T05:53:02.729Z,3.39
2023-01-09T05:55:34.179Z,3.36
2023-01-09T05:58:04.300Z,3.35
2023-01-09T06:00:32.888Z,3.39
2023-01-09T06:03:01.155Z,3.35
2023-01-09T06:05:29.640Z,3.40
2023-01-09T06:07:57.981Z,3.45
2023-01-09T06:10:26.318Z,3.41
2023-01-09T06:12:54.878Z,3.38
2023-01-09T06:15:23.256Z,3.43
2023-01-09T06:17:51.696Z,3.46
2023-01-09T06:20:21.634Z,3.42
2023-01-09T06:22:53.266Z,3.55
2023-01-09T06:25:23.458Z,3.49
2023-01-09T06:27:53.546Z,3.51
2023-01-09T06:30:23.650Z,3.45
2023-01-09T06:32:53.695Z,3.38
2023-01-09T06:35:23.928Z,3.49
2023-01-09T06:37:54.012Z,3.44
2023-01-09T06:40:24.099Z,3.40
2023-01-09T06:42:54.121Z,3.46
2023-01-09T06:45:24.180Z,3.44
2023-01-09T06:47:54.201Z,3.48
2023-01-09T06:50:24.265Z,3.59
2023-01-09T06:52:54.388Z,3.65
2023-01-09T06:55:26.400Z,3.49
2023-01-09T06:57:56.565Z,3.40
2023-01-09T07:00:27.296Z,3.41
2023-01-09T07:02:57.508Z,3.42
2023-01-09T07:05:26.100Z,3.56
2023-01-09T07:07:54.725Z,3.68
2023-01-09T07:10:23.096Z,3.72
2023-01-09T07:12:51.138Z,3.75
2023-01-09T07:15:19.490Z,3.73
2023-01-09T07:17:51.332Z,3.62
2023-01-09T07:20:20.250Z,3.69
2023-01-09T07:22:47.965Z,3.69
2023-01-09T07:25:16.195Z,3.59
2023-01-09T07:27:44.580Z,3.73
2023-01-09T07:30:14.309Z,3.71
2023-01-09T07:32:44.730Z,3.71
2023-01-09T07:35:14.799Z,3.72
2023-01-09T07:37:46.686Z,3.81
2023-01-09T07:40:17.069Z,3.78
2023-01-09T07:42:47.140Z,3.86
2023-01-09T07:45:17.248Z,3.85
2023-01-09T07:47:47.549Z,3.76
2023-01-09T07:50:18.288Z,3.80
2023-01-09T07:52:48.680Z,3.89
2023-01-09T07:55:18.753Z,3.88
2023-01-09T07:57:51.580Z,4.01
2023-01-09T08:00:22.226Z,3.85
2023-01-09T08:02:54.292Z,3.94
2023-01-09T08:05:24.463Z,3.91
2023-01-09T08:07:54.480Z,3.88
2023-01-09T08:10:24.603Z,3.93
2023-01-09T08:12:54.838Z,4.05
2023-01-09T08:15:25.003Z,3.99
2023-01-09T08:17:55.172Z,3.97
2023-01-09T08:20:25.563Z,4.18
2023-01-09T08:22:56.921Z,4.25
2023-01-09T08:25:27.201Z,4.24
2023-01-09T08:27:57.300Z,4.19
2023-01-09T08:30:27.395Z,4.21
2023-01-09T08:32:57.478Z,4.34
2023-01-09T08:35:27.610Z,4.46
2023-01-09T08:37:57.685Z,4.53
2023-01-09T08:40:27.817Z,4.62
2023-01-09T08:43:16.566Z,4.67
2023-01-09T08:46:06.400Z,4.44
2023-01-09T08:48:36.485Z,4.54
2023-01-09T08:51:06.626Z,4.68
2023-01-09T08:53:36.817Z,4.61
2023-01-09T08:56:06.547Z,4.70
2023-01-09T08:58:36.592Z,4.75
2023-01-09T09:01:08.718Z,4.68
2023-01-09T09:03:38.809Z,4.84
2023-01-09T09:06:08.870Z,4.75
2023-01-09T09:08:38.938Z,4.69
2023-01-09T09:11:09.017Z,4.62
2023-01-09T09:13:39.068Z,4.60
2023-01-09T09:16:09.272Z,4.64
2023-01-09T09:18:39.321Z,4.68
2023-01-09T09:21:11.588Z,4.57
2023-01-09T09:23:41.719Z,4.64
2023-01-09T09:26:11.794Z,4.84
2023-01-09T09:28:41.867Z,4.95
2023-01-09T09:31:12.026Z,4.94
2023-01-09T09:33:42.068Z,4.87
2023-01-09T09:36:10.526Z,4.91
2023-01-09T09:38:38.899Z,5.03
2023-01-09T09:42:22.397Z,4.93
2023-01-09T09:45:32.547Z,5.05
2023-01-09T09:48:35.063Z,5.30
2023-01-09T09:51:49.820Z,5.39
2023-01-09T09:54:41.009Z,5.31
2023-01-09T09:57:27.987Z,5.43
2023-01-09T09:59:58.841Z,5.48
2023-01-09T10:02:39.052Z,5.56
2023-01-09T10:05:40.973Z,5.50
2023-01-09T10:08:37.014Z,5.52
2023-01-09T10:11:24.687Z,5.51
2023-01-09T10:14:15.973Z,5.52
2023-01-09T10:17:53.625Z,5.65
2023-01-09T10:21:00.098Z,5.83
2023-01-09T10:24:20.961Z,5.81
2023-01-09T10:26:54.401Z,5.81
2023-01-09T10:29:53.508Z,5.87
2023-01-09T10:33:31.297Z,5.92
2023-01-09T10:36:43.115Z,5.94
2023-01-09T10:39:31.359Z,5.90
2023-01-09T10:42:33.497Z,5.93
2023-01-09T10:45:37.431Z,5.94
2023-01-09T10:48:29.742Z,5.97
2023-01-09T10:50:59.810Z,6.04
2023-01-09T10:53:47.600Z,6.16
2023-01-09T10:56:56.414Z,6.16
2023-01-09T10:59:27.455Z,6.15
2023-01-09T11:01:58.062Z,6.28
2023-01-09T11:04:37.445Z,6.30
2023-01-09T11:07:36.510Z,6.26
2023-01-09T11:10:13.321Z,6.26
2023-01-09T11:12:43.515Z,6.40
2023-01-09T11:15:16.370Z,6.38
2023-01-09T11:17:52.240Z,6.43
2023-01-09T11:20:29.944Z,6.43
2023-01-09T11:22:59.966Z,6.42
2023-01-09T11:25:29.817Z,6.48
2023-01-09T11:28:02.301Z,6.50
2023-01-09T11:30:37.607Z,6.51
2023-01-09T11:33:27.580Z,6.48
2023-01-09T11:36:08.125Z,6.32
2023-01-09T11:38:57.064Z,6.35
2023-01-09T11:41:36.476Z,6.31
2023-01-09T11:44:05.854Z,6.37
2023-01-09T11:46:44.068Z,6.32
2023-01-09T11:49:17.968Z,6.40
2023-01-09T11:52:21.013Z,6.51
2023-01-09T11:55:12.063Z,6.57
2023-01-09T11:57:42.319Z,6.72
2023-01-09T12:00:39.150Z,6.63
2023-01-09T12:03:53.461Z,6.90
2023-01-09T12:06:38.211Z,6.85
2023-01-09T12:09:46.418Z,6.77
2023-01-09T12:13:35.228Z,7.02
2023-01-09T12:16:58.859Z,7.16
2023-01-09T12:19:57.515Z,7.10
2023-01-09T12:23:15.710Z,7.00
2023-01-09T12:26:19.891Z,6.78
2023-01-09T12:29:19.985Z,6.62
2023-01-09T12:32:11.615Z,6.57
2023-01-09T12:35:00.427Z,6.53
2023-01-09T12:37:56.156Z,6.38
2023-01-09T12:41:22.987Z,6.39
2023-01-09T12:45:03.688Z,6.48
2023-01-09T12:48:27.280Z,6.81
2023-01-09T12:51:21.121Z,7.28
2023-01-09T12:54:19.964Z,7.16
2023-01-09T12:57:04.172Z,7.25
2023-01-09T12:59:46.026Z,7.22
2023-01-09T13:03:12.012Z,7.17
2023-01-09T13:05:53.615Z,7.05
2023-01-09T13:08:40.719Z,7.19
2023-01-09T13:11:46.583Z,7.06
2023-01-09T13:14:37.504Z,7.32
2023-01-09T13:17:29.607Z,7.09
2023-01-09T13:19:59.671Z,7.04
2023-01-09T13:22:30.568Z,7.09
2023-01-09T13:25:27.402Z,6.93
2023-01-09T13:28:18.333Z,6.97
2023-01-09T13:31:16.221Z,7.01
2023-01-09T13:34:02.894Z,7.09
2023-01-09T13:36:47.751Z,7.01
2023-01-09T13:39:28.623Z,6.97
2023-01-09T13:42:24.083Z,6.91
2023-01-09T13:45:20.567Z,6.85
2023-01-09T13:48:12.043Z,6.82
2023-01-09T13:50:45.941Z,6.67
2023-01-09T13:53:25.319Z,6.54
2023-01-09T13:55:58.644Z,6.39
2023-01-09T13:58:38.581Z,6.41
2023-01-09T14:01:37.441Z,6.28
2023-01-09T14:04:14.912Z,6.21
2023-01-09T14:06:45.008Z,6.22
2023-01-09T14:09:23.315Z,6.27
2023-01-09T14:12:14.897Z,6.19
2023-01-09T14:14:49.029Z,6.17
2023-01-09T14:17:36.754Z,6.12
2023-01-09T14:20:30.490Z,6.18
2023-01-09T14:25:52.753Z,6.09
2023-01-09T14:28:37.754Z,6.04
2023-01-09T14:31:10.940Z,6.03
2023-01-09T14:33:41.010Z,6.06
2023-01-09T14:36:27.277Z,6.08
2023-01-09T14:39:06.198Z,6.02
2023-01-09T14:41:57.954Z,5.98
2023-01-09T14:45:03.750Z,5.98
2023-01-09T14:47:59.442Z,5.96
2023-01-09T14:50:56.001Z,5.98
2023-01-09T14:53:37.138Z,5.95
2023-01-09T14:56:28.710Z,5.96
2023-01-09T14:59:12.888Z,5.90
2023-01-09T15:01:51.620Z,5.91
2023-01-09T15:04:35.004Z,5.85
2023-01-09T15:07:07.087Z,5.81
2023-01-09T15:09:48.532Z,5.66
2023-01-09T15:12:24.756Z,5.56
2023-01-09T15:15:02.348Z,5.47
2023-01-09T15:17:38.298Z,5.39
2023-01-09T15:20:20.389Z,5.34
2023-01-09T15:22:54.631Z,5.30
2023-01-09T15:25:39.309Z,5.27
2023-01-09T15:28:30.984Z,5.39
2023-01-09T15:31:22.336Z,5.36
2023-01-09T15:33:54.172Z,5.36
2023-01-09T15:36:31.022Z,5.37
2023-01-09T15:39:00.546Z,5.40
2023-01-09T15:41:50.444Z,5.38
2023-01-09T15:44:30.315Z,5.39
2023-01-09T15:47:05.474Z,5.55
2023-01-09T15:49:36.019Z,5.65
2023-01-09T15:52:11.905Z,5.58
2023-01-09T15:54:46.711Z,5.62
2023-01-09T15:57:25.732Z,5.55
2023-01-09T16:00:29.243Z,5.49
2023-01-09T16:03:11.840Z,5.53
2023-01-09T16:06:06.339Z,5.78
2023-01-09T16:08:50.014Z,5.63
2023-01-09T16:11:33.033Z,5.54
2023-01-09T16:14:30.602Z,5.50
2023-01-09T16:17:14.307Z,5.43
2023-01-09T16:20:24.636Z,5.39
2023-01-09T16:22:57.617Z,5.47
2023-01-09T16:25:34.812Z,5.42
2023-01-09T16:28:30.676Z,5.35
2023-01-09T16:31:16.239Z,5.48
2023-01-09T16:33:56.395Z,5.28
2023-01-09T16:36:26.641Z,5.09
2023-01-09T16:38:58.335Z,4.90
2023-01-09T16:41:47.568Z,4.74
2023-01-09T16:44:19.309Z,4.71
2023-01-09T16:46:49.489Z,4.76
2023-01-09T16:49:27.106Z,4.79
2023-01-09T16:51:57.405Z,4.94
2023-01-09T16:54:27.454Z,4.99
2023-01-09T16:56:57.804Z,4.92
2023-01-09T16:59:28.738Z,4.87
2023-01-09T17:01:58.734Z,5.00
2023-01-09T17:04:28.734Z,4.97
2023-01-09T17:06:58.851Z,5.10
2023-01-09T17:09:28.893Z,5.14
2023-01-09T17:11:58.922Z,5.05
2023-01-09T17:14:28.983Z,4.94
2023-01-09T17:16:59.155Z,4.85
2023-01-09T17:19:29.503Z,4.73
2023-01-09T17:21:59.495Z,4.57
2023-01-09T17:24:48.072Z,4.43
2023-01-09T17:27:52.139Z,4.43
2023-01-09T17:30:23.135Z,4.29
2023-01-09T17:32:53.160Z,4.29
2023-01-09T17:35:23.166Z,4.19
2023-01-09T17:37:53.257Z,4.12
2023-01-09T17:40:23.946Z,4.03
2023-01-09T17:42:53.980Z,4.06
2023-01-09T17:45:52.703Z,3.98
2023-01-09T17:48:23.549Z,3.87
2023-01-09T17:50:52.395Z,3.85
2023-01-09T17:53:22.732Z,3.87
2023-01-09T17:55:52.689Z,3.97
2023-01-09T17:58:30.358Z,3.95
2023-01-09T18:01:00.522Z,3.96
2023-01-09T18:03:33.490Z,4.06
2023-01-09T18:06:03.283Z,4.02
2023-01-09T18:08:32.983Z,4.00
2023-01-09T18:11:12.477Z,4.03
2023-01-09T18:13:42.520Z,4.01
2023-01-09T18:16:17.439Z,3.96
2023-01-09T18:18:47.649Z,3.93
2023-01-09T18:21:23.900Z,3.88
2023-01-09T18:23:54.991Z,3.85
2023-01-09T18:26:25.359Z,3.81
2023-01-09T18:28:59.061Z,3.72
2023-01-09T18:31:30.497Z,3.73
2023-01-09T18:34:03.292Z,3.78
2023-01-09T18:37:55.222Z,3.69
2023-01-09T18:40:24.829Z,3.67
2023-01-09T18:42:53.244Z,3.74
2023-01-09T18:45:21.764Z,3.73
2023-01-09T18:47:50.024Z,3.71
2023-01-09T18:50:18.670Z,3.65
2023-01-09T18:52:46.888Z,3.62
2023-01-09T18:55:15.430Z,3.63
2023-01-09T18:57:43.676Z,3.72
2023-01-09T19:14:00.939Z,3.85
2023-01-09T19:16:29.340Z,3.89
2023-01-09T19:18:59.136Z,4.02
2023-01-09T19:21:29.855Z,4.10
2023-01-09T19:23:58.892Z,4.17
2023-01-09T19:26:31.118Z,4.22
2023-01-09T19:29:01.411Z,4.23
2023-01-09T19:31:32.231Z,4.21
2023-01-09T19:34:02.657Z,4.37
2023-01-09T19:36:32.762Z,4.35
2023-01-09T19:39:05.184Z,4.37
2023-01-09T19:41:35.578Z,4.45
2023-01-09T19:44:06.035Z,4.41
2023-01-09T19:46:36.647Z,4.41
2023-01-09T19:49:06.759Z,4.38
2023-01-09T19:51:37.023Z,4.35
2023-01-09T19:54:07.080Z,4.39
2023-01-09T19:56:43.890Z,4.45
2023-01-09T19:59:14.783Z,4.64
2023-01-09T20:01:45.888Z,4.60
2023-01-09T20:04:17.536Z,4.49
2023-01-09T20:06:50.171Z,4.46
2023-01-09T20:09:27.495Z,4.51
2023-01-09T20:11:57.625Z,4.58
2023-01-09T20:14:27.948Z,4.61
2023-01-09T20:17:01.051Z,4.57
2023-01-09T20:19:32.899Z,4.60
2023-01-09T20:22:03.421Z,4.65
2023-01-09T20:24:33.759Z,4.74
2023-01-09T20:27:03.849Z,4.67
2023-01-09T20:29:34.401Z,4.70
2023-01-09T20:32:07.763Z,4.80
2023-01-09T20:34:36.562Z,4.80
2023-01-09T20:37:06.521Z,4.79
2023-01-09T20:39:37.314Z,4.83
2023-01-09T20:42:12.462Z,4.94
2023-01-09T20:44:42.453Z,4.97
2023-01-09T20:47:12.687Z,4.94
2023-01-09T20:49:42.710Z,4.91
2023-01-09T20:52:12.501Z,4.98
2023-01-09T20:54:42.855Z,4.99
2023-01-09T20:57:12.877Z,4.92
2023-01-09T20:59:42.785Z,4.87
2023-01-09T21:02:15.849Z,4.90
2023-01-09T21:04:45.413Z,4.75
2023-01-09T21:07:16.009Z,4.65
2023-01-09T21:09:46.806Z,4.53
2023-01-09T21:12:28.543Z,4.46
2023-01-09T21:15:03.943Z,4.48
2023-01-09T21:17:41.082Z,4.48
2023-01-09T21:20:15.323Z,4.52
2023-01-09T21:22:45.305Z,4.64
2023-01-09T21:25:18.489Z,4.55
2023-01-09T21:27:48.957Z,4.46
2023-01-09T21:30:18.918Z,4.36
2023-01-09T21:32:48.969Z,4.30
2023-01-09T21:35:18.894Z,4.28
2023-01-09T21:37:48.779Z,4.29
2023-01-09T21:40:18.695Z,4.47
2023-01-09T21:43:07.110Z,4.64
2023-01-09T21:45:56.977Z,4.45
2023-01-09T21:48:27.063Z,4.38
2023-01-09T21:51:02.299Z,4.37
2023-01-09T21:53:29.960Z,4.42
2023-01-09T21:56:04.212Z,4.43
2023-01-09T21:58:34.255Z,4.43
2023-01-09T22:01:04.618Z,4.65
2023-01-09T22:03:34.004Z,4.52
2023-01-09T22:06:05.983Z,4.43
2023-01-09T22:08:36.190Z,4.50
2023-01-09T22:11:06.182Z,4.43
2023-01-09T22:13:34.620Z,4.39
2023-01-09T22:16:10.062Z,4.27
2023-01-09T22:18:37.485Z,4.25
2023-01-09T22:21:06.516Z,4.23
2023-01-09T22:23:36.504Z,4.17
2023-01-09T22:26:14.643Z,4.12
2023-01-09T22:28:43.997Z,4.17
2023-01-09T22:31:22.021Z,4.11
2023-01-09T22:33:58.882Z,4.07
2023-01-09T22:36:31.068Z,4.09
2023-01-09T22:39:01.388Z,4.20
2023-01-09T22:41:30.608Z,4.13
2023-01-09T22:43:59.245Z,4.18
2023-01-09T22:46:33.697Z,4.27
2023-01-09T22:49:04.427Z,4.34
2023-01-09T22:51:35.004Z,4.18
2023-01-09T22:54:02.871Z,4.06
2023-01-09T22:56:32.339Z,4.01
2023-01-09T22:59:00.957Z,4.00
2023-01-09T23:01:30.185Z,3.99
2023-01-09T23:03:57.656Z,3.95
2023-01-09T23:06:26.061Z,4.03
2023-01-09T23:08:54.627Z,4.02
2023-01-09T23:11:50.336Z,4.22
2023-01-09T23:14:22.250Z,4.16
2023-01-09T23:16:52.018Z,4.12
2023-01-09T23:19:22.457Z,4.21
2023-01-09T23:26:10.678Z,4.22
2023-01-09T23:28:38.008Z,4.32
2023-01-09T23:31:07.795Z,4.33
2023-01-09T23:33:36.126Z,4.35
2023-01-09T23:36:05.280Z,4.36
2023-01-09T23:38:33.191Z,4.42
2023-01-09T23:41:01.385Z,4.40
2023-01-09T23:43:29.850Z,4.45
2023-01-09T23:45:58.311Z,4.46
2023-01-09T23:48:26.912Z,4.48
2023-01-09T23:50:55.284Z,4.51
2023-01-09T23:53:23.981Z,4.43
2023-01-09T23:55:55.511Z,4.41
2023-01-09T23:58:27.722Z,4.40
